createdAt,value
2018-02-01T00:02:09.120Z,93.30
2018-02-01T00:04:37.722Z,93.30
2018-02-01T00:07:05.397Z,92.80
2018-02-01T00:09:33.040Z,92.60
2018-02-01T00:12:00.705Z,92.70
2018-02-01T00:14:28.394Z,92.90
2018-02-01T00:16:56.066Z,93.00
2018-02-01T00:19:24.492Z,93.20
2018-02-01T00:21:52.151Z,93.10
2018-02-01T00:24:19.784Z,93.50
2018-02-01T00:26:47.467Z,93.20
2018-02-01T00:29:15.154Z,92.80
2018-02-01T00:31:42.794Z,93.20
2018-02-01T00:34:10.465Z,93.50
2018-02-01T00:36:38.164Z,93.00
2018-02-01T00:39:05.841Z,93.30
2018-02-01T00:41:34.302Z,93.40
2018-02-01T00:44:01.972Z,93.40
2018-02-01T00:46:30.397Z,93.50
2018-02-01T00:48:58.823Z,93.50
2018-02-01T00:51:27.250Z,93.90
2018-02-01T00:53:54.925Z,93.50
2018-02-01T00:56:22.603Z,94.00
2018-02-01T00:58:50.283Z,94.30
2018-02-01T01:01:18.788Z,95.00
2018-02-01T01:03:46.490Z,95.00
2018-02-01T01:06:14.171Z,95.70
2018-02-01T01:08:41.818Z,95.70
2018-02-01T01:11:09.517Z,96.10
2018-02-01T01:13:37.954Z,96.70
2018-02-01T01:16:05.578Z,96.70
2018-02-01T01:18:34.029Z,98.00
2018-02-01T01:21:02.455Z,98.90
2018-02-01T01:23:30.079Z,98.90
2018-02-01T01:25:58.512Z,99.70
2018-02-01T01:28:26.175Z,99.70
2018-02-01T01:30:53.816Z,99.90
2018-02-01T01:33:21.511Z,99.90
2018-02-01T01:35:49.171Z,99.90
2018-02-01T01:38:16.840Z,99.90
2018-02-01T01:40:45.298Z,99.90
2018-02-01T01:43:13.008Z,99.90
2018-02-01T01:45:41.317Z,99.90
2018-02-01T01:48:08.971Z,99.90
2018-02-01T01:50:36.644Z,99.90
2018-02-01T01:53:04.275Z,99.90
2018-02-01T01:55:31.974Z,99.90
2018-02-01T01:57:59.652Z,99.90
2018-02-01T02:00:28.061Z,99.90
2018-02-01T02:02:55.733Z,99.90
2018-02-01T02:05:23.406Z,99.90
2018-02-01T02:07:51.029Z,99.90
2018-02-01T02:10:19.480Z,99.90
2018-02-01T02:12:47.218Z,99.90
2018-02-01T02:15:14.852Z,99.90
2018-02-01T02:17:42.574Z,99.90
2018-02-01T02:20:10.284Z,99.90
2018-02-01T02:22:37.925Z,99.90
2018-02-01T02:25:05.591Z,99.90
2018-02-01T02:27:33.305Z,99.90
2018-02-01T02:30:01.021Z,99.90
2018-02-01T02:32:28.737Z,99.90
2018-02-01T02:34:56.416Z,99.90
2018-02-01T02:37:24.842Z,99.90
2018-02-01T02:39:52.537Z,99.90
2018-02-01T02:42:20.983Z,99.90
2018-02-01T02:44:48.619Z,99.90
2018-02-01T02:47:16.295Z,99.90
2018-02-01T02:49:43.976Z,99.90
2018-02-01T02:52:11.634Z,99.90
2018-02-01T02:54:39.398Z,99.90
2018-02-01T02:57:07.083Z,99.90
2018-02-01T02:59:35.478Z,99.90
2018-02-01T03:02:03.933Z,99.90
2018-02-01T03:04:31.609Z,99.90
2018-02-01T03:07:00.004Z,99.90
2018-02-01T03:09:28.441Z,99.90
2018-02-01T03:11:56.156Z,99.90
2018-02-01T03:14:23.819Z,99.90
2018-02-01T03:16:51.498Z,99.90
2018-02-01T03:19:19.189Z,99.90
2018-02-01T03:21:46.821Z,99.90
2018-02-01T03:24:14.530Z,99.90
2018-02-01T03:26:42.985Z,99.90
2018-02-01T03:29:10.645Z,99.90
2018-02-01T03:31:38.334Z,99.90
2018-02-01T03:34:06.018Z,99.90
2018-02-01T03:36:33.660Z,99.90
2018-02-01T03:39:01.325Z,99.90
2018-02-01T03:41:28.993Z,99.90
2018-02-01T03:43:56.656Z,99.90
2018-02-01T03:46:24.351Z,99.90
2018-02-01T03:48:52.037Z,99.90
2018-02-01T03:51:19.671Z,99.90
2018-02-01T03:53:47.389Z,99.90
2018-02-01T03:56:15.074Z,99.90
2018-02-01T03:58:42.744Z,99.90
2018-02-01T04:01:10.428Z,99.90
2018-02-01T04:03:38.100Z,99.90
2018-02-01T04:06:05.736Z,99.90
2018-02-01T04:08:33.400Z,99.90
2018-02-01T04:11:01.061Z,99.90
2018-02-01T04:13:29.544Z,99.90
2018-02-01T04:15:57.216Z,99.90
2018-02-01T04:18:24.872Z,99.90
2018-02-01T04:20:52.517Z,99.90
2018-02-01T04:23:20.212Z,99.90
2018-02-01T04:25:48.665Z,99.90
2018-02-01T04:28:16.323Z,99.90
2018-02-01T04:30:43.996Z,99.90
2018-02-01T04:33:11.711Z,99.90
2018-02-01T04:35:39.328Z,99.90
2018-02-01T04:38:07.779Z,99.90
2018-02-01T04:40:35.500Z,99.90
2018-02-01T04:43:03.132Z,99.90
2018-02-01T04:45:31.563Z,99.90
2018-02-01T04:47:59.235Z,99.90
2018-02-01T04:50:26.886Z,99.90
2018-02-01T04:52:54.578Z,99.90
2018-02-01T04:55:22.317Z,99.90
2018-02-01T04:57:50.022Z,99.90
2018-02-01T05:00:18.461Z,99.90
2018-02-01T05:02:46.152Z,99.90
2018-02-01T05:05:14.572Z,99.90
2018-02-01T05:07:42.262Z,99.90
2018-02-01T05:10:09.948Z,99.90
2018-02-01T05:12:38.353Z,99.90
2018-02-01T05:15:06.017Z,99.90
2018-02-01T05:17:33.739Z,99.90
2018-02-01T05:20:01.407Z,99.90
2018-02-01T05:22:29.859Z,99.90
2018-02-01T05:24:57.524Z,99.90
2018-02-01T05:27:25.156Z,99.90
2018-02-01T05:29:52.861Z,99.90
2018-02-01T05:32:20.524Z,99.90
2018-02-01T05:34:48.937Z,99.90
2018-02-01T05:37:16.657Z,99.90
2018-02-01T05:39:45.108Z,99.90
2018-02-01T05:42:12.819Z,99.90
2018-02-01T05:44:41.253Z,99.90
2018-02-01T05:47:08.938Z,99.90
2018-02-01T05:49:36.598Z,99.90
2018-02-01T05:52:04.271Z,99.90
2018-02-01T05:54:32.712Z,99.90
2018-02-01T05:57:00.360Z,99.90
2018-02-01T05:59:28.036Z,99.90
2018-02-01T06:01:55.711Z,99.90
2018-02-01T06:04:23.348Z,99.90
2018-02-01T06:06:51.028Z,99.90
2018-02-01T06:09:18.703Z,99.90
2018-02-01T06:11:47.179Z,99.90
2018-02-01T06:14:15.646Z,99.90
2018-02-01T06:16:43.448Z,99.90
2018-02-01T06:19:11.112Z,99.90
2018-02-01T06:21:38.789Z,99.90
2018-02-01T06:24:06.468Z,99.90
2018-02-01T06:26:34.137Z,99.90
2018-02-01T06:29:01.872Z,99.90
2018-02-01T06:31:29.603Z,99.90
2018-02-01T06:33:57.232Z,99.90
2018-02-01T06:36:24.902Z,99.90
2018-02-01T06:38:52.568Z,99.90
2018-02-01T06:41:20.238Z,99.90
2018-02-01T06:43:48.708Z,99.90
2018-02-01T06:46:17.206Z,99.90
2018-02-01T06:48:45.616Z,99.90
2018-02-01T06:51:13.358Z,99.90
2018-02-01T06:53:41.060Z,99.90
2018-02-01T06:56:08.728Z,99.90
2018-02-01T06:58:36.418Z,99.90
2018-02-01T07:01:07.432Z,99.90
2018-02-01T07:03:35.112Z,99.90
2018-02-01T07:06:02.838Z,99.90
2018-02-01T07:08:30.635Z,99.90
2018-02-01T07:10:58.281Z,99.90
2018-02-01T07:13:25.946Z,99.90
2018-02-01T07:15:53.635Z,99.90
2018-02-01T07:18:22.057Z,99.90
2018-02-01T07:20:49.739Z,99.90
2018-02-01T07:23:17.443Z,99.90
2018-02-01T07:25:45.996Z,99.90
2018-02-01T07:28:13.772Z,99.90
2018-02-01T07:30:41.488Z,99.90
2018-02-01T07:33:09.115Z,99.90
2018-02-01T07:35:36.785Z,99.90
2018-02-01T07:38:04.472Z,99.90
2018-02-01T07:40:32.116Z,99.90
2018-02-01T07:42:59.821Z,99.90
2018-02-01T07:45:28.159Z,99.90
2018-02-01T07:47:55.898Z,99.90
2018-02-01T07:50:23.600Z,99.90
2018-02-01T07:52:51.284Z,99.90
2018-02-01T07:55:18.960Z,99.90
2018-02-01T07:57:47.465Z,99.90
2018-02-01T08:00:15.191Z,99.90
2018-02-01T08:02:43.607Z,99.90
2018-02-01T08:05:11.333Z,99.90
2018-02-01T08:07:39.817Z,99.90
2018-02-01T08:10:08.376Z,99.90
2018-02-01T08:12:36.084Z,99.90
2018-02-01T08:15:03.829Z,99.90
2018-02-01T08:17:43.132Z,99.90
2018-02-01T08:20:10.862Z,99.90
2018-02-01T08:22:38.577Z,99.90
2018-02-01T08:25:07.053Z,99.90
2018-02-01T08:27:35.570Z,99.90
2018-02-01T08:30:03.326Z,99.90
2018-02-01T08:32:31.038Z,99.90
2018-02-01T08:34:58.779Z,99.90
2018-02-01T08:37:26.454Z,99.90
2018-02-01T08:39:54.178Z,99.90
2018-02-01T08:42:21.899Z,99.90
2018-02-01T08:44:49.650Z,99.90
2018-02-01T08:47:17.354Z,99.90
2018-02-01T08:49:45.088Z,99.90
2018-02-01T08:52:13.548Z,99.90
2018-02-01T08:54:41.282Z,99.90
2018-02-01T08:57:08.921Z,99.90
2018-02-01T08:59:36.589Z,99.90
2018-02-01T09:02:04.340Z,99.90
2018-02-01T09:04:31.986Z,99.90
2018-02-01T09:07:00.488Z,99.90
2018-02-01T09:09:28.297Z,99.90
2018-02-01T09:11:56.077Z,99.90
2018-02-01T09:14:24.512Z,99.90
2018-02-01T09:16:52.301Z,99.90
2018-02-01T09:19:19.967Z,99.90
2018-02-01T09:21:47.680Z,99.90
2018-02-01T09:24:15.460Z,99.90
2018-02-01T09:26:43.128Z,99.90
2018-02-01T09:29:10.873Z,99.90
2018-02-01T09:31:38.612Z,99.90
2018-02-01T09:34:06.384Z,99.90
2018-02-01T09:36:34.106Z,99.90
2018-02-01T09:39:02.609Z,99.90
2018-02-01T09:41:30.276Z,99.90
2018-02-01T09:43:57.969Z,99.90
2018-02-01T09:46:25.687Z,99.90
2018-02-01T09:48:53.474Z,99.90
2018-02-01T09:51:21.289Z,99.90
2018-02-01T09:53:49.061Z,99.90
2018-02-01T09:56:17.510Z,99.90
2018-02-01T09:58:45.262Z,99.90
2018-02-01T10:01:13.029Z,99.90
2018-02-01T10:03:41.547Z,99.90
2018-02-01T10:06:10.129Z,99.90
2018-02-01T10:08:38.570Z,99.90
2018-02-01T10:11:06.276Z,99.90
2018-02-01T10:13:34.746Z,99.90
2018-02-01T10:16:03.229Z,99.90
2018-02-01T10:18:31.660Z,99.90
2018-02-01T10:20:59.335Z,99.90
2018-02-01T10:23:27.010Z,99.90
2018-02-01T10:25:54.638Z,99.90
2018-02-01T10:28:22.462Z,99.90
2018-02-01T10:30:50.926Z,99.90
2018-02-01T10:33:18.655Z,99.90
2018-02-01T10:35:46.351Z,99.90
2018-02-01T10:38:14.103Z,99.90
2018-02-01T10:40:41.792Z,99.90
2018-02-01T10:43:10.362Z,99.90
2018-02-01T10:45:38.845Z,99.90
2018-02-01T10:48:07.287Z,99.90
2018-02-01T10:50:35.027Z,99.90
2018-02-01T10:53:02.761Z,99.90
2018-02-01T10:55:30.464Z,99.90
2018-02-01T10:57:58.258Z,99.90
2018-02-01T11:00:26.022Z,99.90
2018-02-01T11:02:53.704Z,99.90
2018-02-01T11:05:21.409Z,99.90
2018-02-01T11:07:49.241Z,99.90
2018-02-01T11:10:16.908Z,99.90
2018-02-01T11:12:44.696Z,99.90
2018-02-01T11:15:12.397Z,99.90
2018-02-01T11:17:40.860Z,99.90
2018-02-01T11:20:08.651Z,99.90
2018-02-01T11:22:36.434Z,99.90
2018-02-01T11:25:04.130Z,99.90
2018-02-01T11:27:31.863Z,99.90
2018-02-01T11:29:59.584Z,99.90
2018-02-01T11:32:28.026Z,99.90
2018-02-01T11:34:55.729Z,99.90
2018-02-01T11:37:24.188Z,99.90
2018-02-01T11:39:51.825Z,99.90
2018-02-01T11:42:19.496Z,99.90
2018-02-01T11:44:47.215Z,99.90
2018-02-01T11:47:14.900Z,99.90
2018-02-01T11:49:42.674Z,99.90
2018-02-01T11:52:10.528Z,99.90
2018-02-01T11:54:38.165Z,99.90
2018-02-01T11:57:05.981Z,99.90
2018-02-01T11:59:33.737Z,99.90
2018-02-01T12:02:01.379Z,99.90
2018-02-01T12:04:29.096Z,99.90
2018-02-01T12:06:57.544Z,99.90
2018-02-01T12:09:25.236Z,99.90
2018-02-01T12:11:53.717Z,99.90
2018-02-01T12:14:21.409Z,99.90
2018-02-01T12:16:49.822Z,99.90
2018-02-01T12:19:17.489Z,99.90
2018-02-01T12:21:45.149Z,99.90
2018-02-01T12:24:12.889Z,99.90
2018-02-01T12:26:40.662Z,99.90
2018-02-01T12:29:08.941Z,99.90
2018-02-01T12:31:36.585Z,99.90
2018-02-01T12:34:04.337Z,99.90
2018-02-01T12:36:32.029Z,99.90
2018-02-01T12:38:59.745Z,99.90
2018-02-01T12:41:27.413Z,99.90
2018-02-01T12:43:55.202Z,99.90
2018-02-01T12:46:22.906Z,99.90
2018-02-01T12:48:50.635Z,99.90
2018-02-01T12:51:18.348Z,99.90
2018-02-01T12:53:46.039Z,99.90
2018-02-01T12:56:13.717Z,99.90
2018-02-01T12:58:41.430Z,99.90
2018-02-01T13:01:09.076Z,99.90
2018-02-01T13:03:36.790Z,99.90
2018-02-01T13:06:04.539Z,99.90
2018-02-01T13:08:32.201Z,99.90
2018-02-01T13:10:59.958Z,99.90
2018-02-01T13:13:27.639Z,99.90
2018-02-01T13:15:55.281Z,99.90
2018-02-01T13:18:22.977Z,99.90
2018-02-01T13:20:51.409Z,99.90
2018-02-01T13:23:19.036Z,99.90
2018-02-01T13:25:46.742Z,99.90
2018-02-01T13:28:14.410Z,99.90
2018-02-01T13:30:42.080Z,99.90
2018-02-01T13:33:09.767Z,99.90
2018-02-01T13:35:38.252Z,99.90
2018-02-01T13:38:06.651Z,99.90
2018-02-01T13:40:34.324Z,99.90
2018-02-01T13:43:02.042Z,99.90
2018-02-01T13:45:30.602Z,99.90
2018-02-01T13:47:58.322Z,99.90
2018-02-01T13:50:25.982Z,99.90
2018-02-01T13:52:53.696Z,99.90
2018-02-01T13:55:21.374Z,99.90
2018-02-01T13:57:49.799Z,99.90
2018-02-01T14:00:17.466Z,99.90
2018-02-01T14:02:45.199Z,99.90
2018-02-01T14:05:12.907Z,99.90
2018-02-01T14:07:40.548Z,99.90
2018-02-01T14:10:08.263Z,99.90
2018-02-01T14:12:36.736Z,99.90
2018-02-01T14:15:05.169Z,99.90
2018-02-01T14:17:32.960Z,99.90
2018-02-01T14:20:00.715Z,99.90
2018-02-01T14:22:28.465Z,99.90
2018-02-01T14:24:56.937Z,99.90
2018-02-01T14:27:24.644Z,99.90
2018-02-01T14:29:53.082Z,99.90
2018-02-01T14:32:20.840Z,99.90
2018-02-01T14:34:48.665Z,99.90
2018-02-01T14:37:16.360Z,99.90
2018-02-01T14:39:44.020Z,99.90
2018-02-01T14:42:11.695Z,99.90
2018-02-01T14:44:39.334Z,99.90
2018-02-01T14:47:07.001Z,99.90
2018-02-01T14:49:34.671Z,99.90
2018-02-01T14:52:02.328Z,99.90
2018-02-01T14:54:30.030Z,99.90
2018-02-01T14:56:58.473Z,99.90
2018-02-01T14:59:26.140Z,99.90
2018-02-01T15:01:53.821Z,99.90
2018-02-01T15:04:22.256Z,99.90
2018-02-01T15:06:49.950Z,99.90
2018-02-01T15:09:17.657Z,99.90
2018-02-01T15:11:45.334Z,99.90
2018-02-01T15:14:12.981Z,99.90
2018-02-01T15:16:40.705Z,99.90
2018-02-01T15:19:09.172Z,99.90
2018-02-01T15:21:36.822Z,99.90
2018-02-01T15:24:04.501Z,99.90
2018-02-01T15:26:32.953Z,99.90
2018-02-01T15:29:00.591Z,99.90
2018-02-01T15:31:28.255Z,99.90
2018-02-01T15:33:55.927Z,99.90
2018-02-01T15:36:23.603Z,99.90
2018-02-01T15:38:51.298Z,99.90
2018-02-01T15:41:18.980Z,99.90
2018-02-01T15:43:46.627Z,99.90
2018-02-01T15:46:14.326Z,99.90
2018-02-01T15:48:41.994Z,99.90
2018-02-01T15:51:09.676Z,99.90
2018-02-01T15:53:38.265Z,99.90
2018-02-01T15:56:06.709Z,99.90
2018-02-01T15:58:34.392Z,99.90
2018-02-01T16:01:02.076Z,99.90
2018-02-01T16:03:30.543Z,99.90
2018-02-01T16:05:58.954Z,99.90
2018-02-01T16:08:26.639Z,99.90
2018-02-01T16:10:54.311Z,99.90
2018-02-01T16:13:21.964Z,99.90
2018-02-01T16:15:49.648Z,99.90
2018-02-01T16:18:17.354Z,99.90
2018-02-01T16:20:45.001Z,99.90
2018-02-01T16:23:13.463Z,99.90
2018-02-01T16:25:41.911Z,99.90
2018-02-01T16:28:09.566Z,99.90
2018-02-01T16:30:37.249Z,99.90
2018-02-01T16:33:04.928Z,99.90
2018-02-01T16:35:33.354Z,99.90
2018-02-01T16:38:01.041Z,99.90
2018-02-01T16:40:28.737Z,99.90
2018-02-01T16:42:57.160Z,99.90
2018-02-01T16:45:24.855Z,99.90
2018-02-01T16:47:52.525Z,99.90
2018-02-01T16:50:20.998Z,99.90
2018-02-01T16:52:48.717Z,99.90
2018-02-01T16:55:16.493Z,99.90
2018-02-01T16:57:44.929Z,99.90
2018-02-01T17:00:12.610Z,99.90
2018-02-01T17:02:40.312Z,99.90
2018-02-01T17:05:07.982Z,99.90
2018-02-01T17:07:35.677Z,99.90
2018-02-01T17:10:03.547Z,99.90
2018-02-01T17:12:31.317Z,99.90
2018-02-01T17:14:58.980Z,99.90
2018-02-01T17:17:26.674Z,99.90
2018-02-01T17:19:54.397Z,99.90
2018-02-01T17:22:22.078Z,99.90
2018-02-01T17:24:49.735Z,99.90
2018-02-01T17:27:17.394Z,99.90
2018-02-01T17:29:45.070Z,99.90
2018-02-01T17:32:12.775Z,99.90
2018-02-01T17:34:41.192Z,99.90
2018-02-01T17:37:08.871Z,99.90
2018-02-01T17:39:36.528Z,99.90
2018-02-01T17:42:04.165Z,99.90
2018-02-01T17:44:31.851Z,99.90
2018-02-01T17:46:59.546Z,99.90
2018-02-01T17:49:28.032Z,99.90
2018-02-01T17:51:55.732Z,99.90
2018-02-01T17:54:23.415Z,99.90
2018-02-01T17:56:51.049Z,99.90
2018-02-01T17:59:18.736Z,99.90
2018-02-01T18:01:46.470Z,99.90
2018-02-01T18:04:14.108Z,99.90
2018-02-01T18:06:41.777Z,99.90
2018-02-01T18:09:09.458Z,99.90
2018-02-01T18:11:37.127Z,99.90
2018-02-01T18:14:04.778Z,99.90
2018-02-01T18:16:32.469Z,99.90
2018-02-01T18:19:00.108Z,99.90
2018-02-01T18:21:27.840Z,99.90
2018-02-01T18:23:55.587Z,99.90
2018-02-01T18:26:23.241Z,99.90
2018-02-01T18:28:51.781Z,99.90
2018-02-01T18:31:19.520Z,99.90
2018-02-01T18:33:47.336Z,99.90
2018-02-01T18:36:15.798Z,99.90
2018-02-01T18:38:43.526Z,99.90
2018-02-01T18:41:11.225Z,99.90
2018-02-01T18:43:38.889Z,99.90
2018-02-01T18:46:06.566Z,99.90
2018-02-01T18:48:34.964Z,99.90
2018-02-01T18:51:02.701Z,99.90
2018-02-01T18:53:31.237Z,99.90
2018-02-01T18:55:59.068Z,99.90
2018-02-01T18:58:26.766Z,99.90
2018-02-01T19:00:54.427Z,99.90
2018-02-01T19:03:22.093Z,99.90
2018-02-01T19:05:49.771Z,99.90
2018-02-01T19:08:17.477Z,99.90
2018-02-01T19:10:45.140Z,99.90
2018-02-01T19:13:12.825Z,99.90
2018-02-01T19:15:40.535Z,99.90
2018-02-01T19:18:08.966Z,99.90
2018-02-01T19:20:36.647Z,99.90
2018-02-01T19:23:04.328Z,99.90
2018-02-01T19:25:31.971Z,99.90
2018-02-01T19:27:59.712Z,99.90
2018-02-01T19:30:27.380Z,99.90
2018-02-01T19:32:55.036Z,99.90
2018-02-01T19:35:22.773Z,99.90
2018-02-01T19:37:50.455Z,99.90
2018-02-01T19:40:18.120Z,99.90
2018-02-01T19:42:45.808Z,99.90
2018-02-01T19:45:13.506Z,99.90
2018-02-01T19:47:41.198Z,99.90
2018-02-01T19:50:08.872Z,99.90
2018-02-01T19:52:36.565Z,99.90
2018-02-01T19:55:05.211Z,99.90
2018-02-01T19:57:32.905Z,99.90
2018-02-01T20:00:01.365Z,99.90
2018-02-01T20:02:29.039Z,99.90
2018-02-01T20:04:57.497Z,99.90
2018-02-01T20:07:25.176Z,99.90
2018-02-01T20:09:52.823Z,99.90
2018-02-01T20:12:20.512Z,99.90
2018-02-01T20:14:48.961Z,99.90
2018-02-01T20:17:16.628Z,99.90
2018-02-01T20:19:44.322Z,99.90
2018-02-01T20:22:12.033Z,99.90
2018-02-01T20:24:39.671Z,99.90
2018-02-01T20:27:07.344Z,99.90
2018-02-01T20:29:35.012Z,99.90
2018-02-01T20:32:02.659Z,99.90
2018-02-01T20:34:30.358Z,99.90
2018-02-01T20:36:58.072Z,99.90
2018-02-01T20:39:25.728Z,99.90
2018-02-01T20:41:53.409Z,99.90
2018-02-01T20:44:21.098Z,99.90
2018-02-01T20:46:49.516Z,99.90
2018-02-01T20:49:17.211Z,99.90
2018-02-01T20:51:44.898Z,99.90
2018-02-01T20:54:12.547Z,99.90
2018-02-01T20:56:40.274Z,99.90
2018-02-01T20:59:07.973Z,99.90
2018-02-01T21:01:35.600Z,99.90
2018-02-01T21:04:03.283Z,99.90
2018-02-01T21:06:30.963Z,99.90
2018-02-01T21:08:58.596Z,99.90
2018-02-01T21:11:26.251Z,99.90
2018-02-01T21:13:53.953Z,99.90
2018-02-01T21:16:22.472Z,99.90
2018-02-01T21:18:50.317Z,99.90
2018-02-01T21:21:18.795Z,99.90
2018-02-01T21:23:46.436Z,99.90
2018-02-01T21:26:14.900Z,99.90
2018-02-01T21:28:42.637Z,99.90
2018-02-01T21:31:10.302Z,99.90
2018-02-01T21:33:38.151Z,99.90
2018-02-01T21:36:05.797Z,99.90
2018-02-01T21:38:33.462Z,99.90
2018-02-01T21:41:01.154Z,99.90
2018-02-01T21:43:29.080Z,99.90
2018-02-01T21:45:56.808Z,99.90
2018-02-01T21:48:25.273Z,99.90
2018-02-01T21:50:52.961Z,99.90
2018-02-01T21:53:21.431Z,99.90
2018-02-01T21:55:49.884Z,99.90
2018-02-01T21:58:17.572Z,99.90
2018-02-01T22:00:46.008Z,99.90
2018-02-01T22:03:13.716Z,99.90
2018-02-01T22:05:42.159Z,99.90
2018-02-01T22:08:09.923Z,99.90
2018-02-01T22:10:37.666Z,99.90
2018-02-01T22:13:05.368Z,99.90
2018-02-01T22:15:33.183Z,99.90
2018-02-01T22:18:00.957Z,99.90
2018-02-01T22:20:28.681Z,99.90
2018-02-01T22:22:56.307Z,99.90
2018-02-01T22:25:24.756Z,99.90
2018-02-01T22:27:52.444Z,99.90
2018-02-01T22:30:20.101Z,99.90
2018-02-01T22:32:47.797Z,99.90
2018-02-01T22:35:23.489Z,99.90
2018-02-01T22:37:52.301Z,99.90
2018-02-01T22:40:20.000Z,99.90
2018-02-01T22:42:47.648Z,99.90
2018-02-01T22:45:16.116Z,99.90
2018-02-01T22:47:44.576Z,99.90
2018-02-01T22:50:12.248Z,99.90
2018-02-01T22:52:40.000Z,99.90
2018-02-01T22:55:07.928Z,99.90
2018-02-01T22:57:35.632Z,99.90
2018-02-01T23:00:04.490Z,99.90
2018-02-01T23:02:32.159Z,99.90
2018-02-01T23:04:59.821Z,99.90
2018-02-01T23:07:27.523Z,99.90
2018-02-01T23:09:55.986Z,99.90
2018-02-01T23:12:23.647Z,99.90
2018-02-01T23:14:51.320Z,99.90
2018-02-01T23:17:19.752Z,99.90
2018-02-01T23:19:47.384Z,99.90
2018-02-01T23:22:15.051Z,99.90
2018-02-01T23:24:43.655Z,99.90
2018-02-01T23:27:11.314Z,99.90
2018-02-01T23:29:39.092Z,99.90
2018-02-01T23:32:06.792Z,99.90
2018-02-01T23:34:35.236Z,99.90
2018-02-01T23:37:02.933Z,99.90
2018-02-01T23:39:31.426Z,99.90
2018-02-01T23:41:59.100Z,99.90
2018-02-01T23:44:26.776Z,99.90
2018-02-01T23:46:54.435Z,99.90
2018-02-01T23:49:22.057Z,99.90
2018-02-01T23:51:50.484Z,99.90
2018-02-01T23:54:18.148Z,99.90
2018-02-01T23:56:46.385Z,99.90
2018-02-01T23:59:14.993Z,99.90
